Terminal Aerodrome Forecast
Issued by NWS Sioux Falls, SD

Home | Current Version | Previous Version | Graphics & Text | Print | Product List | Glossary Off
Versions: 1 2 3 4 5 6 7 8 9 10 11 12 13 14 15 16 17 18 19

000
FTUS43 KFSD 160500
TAFFSD
TAF
KFSD 160520Z 1606/1706 12015G23KT P6SM BKN150
     FM160900 14014G22KT P6SM BKN100 WS013/19040KT
     FM161300 16013KT P6SM SCT060 OVC090
     FM161700 29012G17KT P6SM -SHRA BKN030 OVC050
     FM162000 34021G32KT 4SM -SN OVC015
     FM162300 35021G28KT P6SM BKN020
     FM170300 35014G20KT P6SM SCT025=

USA.gov is the U.S. government's official web portal to all federal, state and local government web resources and services.